sensor_id;sensor_type;location;lat;lon;timestamp;P1;durP1;ratioP1;P2;durP2;ratioP2
12947;SDS011;6539;49.476;8.484;2023-03-01T00:01:27;10.97;;;8.13;;
12947;SDS011;6539;49.476;8.484;2023-03-01T00:03:56;10.07;;;8.10;;
12947;SDS011;6539;49.476;8.484;2023-03-01T00:06:26;9.60;;;7.97;;
12947;SDS011;6539;49.476;8.484;2023-03-01T00:08:52;10.07;;;7.97;;
12947;SDS011;6539;49.476;8.484;2023-03-01T00:11:25;10.20;;;7.47;;
12947;SDS011;6539;49.476;8.484;2023-03-01T00:13:56;9.97;;;7.53;;
12947;SDS011;6539;49.476;8.484;2023-03-01T00:16:27;9.80;;;8.03;;
12947;SDS011;6539;49.476;8.484;2023-03-01T00:18:58;11.07;;;8.13;;
12947;SDS011;6539;49.476;8.484;2023-03-01T00:21:29;9.13;;;7.93;;
12947;SDS011;6539;49.476;8.484;2023-03-01T00:23:55;11.23;;;8.50;;
12947;SDS011;6539;49.476;8.484;2023-03-01T00:26:25;13.30;;;8.60;;
12947;SDS011;6539;49.476;8.484;2023-03-01T00:28:52;10.27;;;8.03;;
12947;SDS011;6539;49.476;8.484;2023-03-01T00:31:21;11.93;;;8.90;;
12947;SDS011;6539;49.476;8.484;2023-03-01T00:33:53;11.30;;;8.57;;
12947;SDS011;6539;49.476;8.484;2023-03-01T00:36:24;12.37;;;8.83;;
12947;SDS011;6539;49.476;8.484;2023-03-01T00:38:53;13.10;;;8.67;;
12947;SDS011;6539;49.476;8.484;2023-03-01T00:41:19;12.43;;;8.63;;
12947;SDS011;6539;49.476;8.484;2023-03-01T00:43:51;11.20;;;7.90;;
12947;SDS011;6539;49.476;8.484;2023-03-01T00:46:22;10.60;;;8.20;;
12947;SDS011;6539;49.476;8.484;2023-03-01T00:48:55;11.00;;;8.27;;
12947;SDS011;6539;49.476;8.484;2023-03-01T00:51:24;12.17;;;8.70;;
12947;SDS011;6539;49.476;8.484;2023-03-01T00:53:53;14.47;;;8.50;;
12947;SDS011;6539;49.476;8.484;2023-03-01T00:56:24;13.47;;;9.63;;
12947;SDS011;6539;49.476;8.484;2023-03-01T00:58:50;12.47;;;8.97;;
12947;SDS011;6539;49.476;8.484;2023-03-01T01:01:20;12.23;;;8.70;;
12947;SDS011;6539;49.476;8.484;2023-03-01T01:03:56;12.30;;;9.10;;
12947;SDS011;6539;49.476;8.484;2023-03-01T01:06:32;13.27;;;9.60;;
12947;SDS011;6539;49.476;8.484;2023-03-01T01:09:04;12.63;;;8.40;;
12947;SDS011;6539;49.476;8.484;2023-03-01T01:11:32;14.13;;;9.53;;
12947;SDS011;6539;49.476;8.484;2023-03-01T01:14:03;12.90;;;9.53;;
12947;SDS011;6539;49.476;8.484;2023-03-01T01:16:29;13.27;;;8.60;;
12947;SDS011;6539;49.476;8.484;2023-03-01T01:18:56;11.93;;;9.27;;
12947;SDS011;6539;49.476;8.484;2023-03-01T01:21:27;10.90;;;8.60;;
12947;SDS011;6539;49.476;8.484;2023-03-01T01:23:55;12.27;;;9.23;;
12947;SDS011;6539;49.476;8.484;2023-03-01T01:26:23;12.73;;;9.30;;
12947;SDS011;6539;49.476;8.484;2023-03-01T01:28:55;11.30;;;9.03;;
12947;SDS011;6539;49.476;8.484;2023-03-01T01:31:24;13.83;;;9.53;;
12947;SDS011;6539;49.476;8.484;2023-03-01T01:33:53;13.03;;;9.80;;
12947;SDS011;6539;49.476;8.484;2023-03-01T01:36:22;14.60;;;9.17;;
12947;SDS011;6539;49.476;8.484;2023-03-01T01:38:48;13.37;;;8.87;;
12947;SDS011;6539;49.476;8.484;2023-03-01T01:41:14;13.47;;;8.90;;
12947;SDS011;6539;49.476;8.484;2023-03-01T01:43:42;12.97;;;9.10;;
12947;SDS011;6539;49.476;8.484;2023-03-01T01:46:28;13.70;;;10.03;;
12947;SDS011;6539;49.476;8.484;2023-03-01T01:49:01;14.77;;;9.43;;
12947;SDS011;6539;49.476;8.484;2023-03-01T01:51:40;12.00;;;9.37;;
12947;SDS011;6539;49.476;8.484;2023-03-01T01:54:24;14.23;;;9.63;;
12947;SDS011;6539;49.476;8.484;2023-03-01T01:57:25;14.03;;;9.90;;
12947;SDS011;6539;49.476;8.484;2023-03-01T02:00:00;16.97;;;9.53;;
12947;SDS011;6539;49.476;8.484;2023-03-01T02:02:37;14.40;;;9.93;;
12947;SDS011;6539;49.476;8.484;2023-03-01T02:05:08;13.47;;;9.90;;
12947;SDS011;6539;49.476;8.484;2023-03-01T02:07:46;12.10;;;9.17;;
12947;SDS011;6539;49.476;8.484;2023-03-01T02:10:13;13.23;;;9.70;;
12947;SDS011;6539;49.476;8.484;2023-03-01T02:12:40;13.90;;;10.50;;
12947;SDS011;6539;49.476;8.484;2023-03-01T02:15:07;14.93;;;10.50;;
12947;SDS011;6539;49.476;8.484;2023-03-01T02:17:33;15.27;;;10.70;;
12947;SDS011;6539;49.476;8.484;2023-03-01T02:20:06;13.97;;;9.57;;
12947;SDS011;6539;49.476;8.484;2023-03-01T02:22:54;12.50;;;9.83;;
12947;SDS011;6539;49.476;8.484;2023-03-01T02:28:47;14.70;;;10.30;;
12947;SDS011;6539;49.476;8.484;2023-03-01T02:31:00;16.60;;;11.47;;
12947;SDS011;6539;49.476;8.484;2023-03-01T02:33:50;15.33;;;10.77;;
12947;SDS011;6539;49.476;8.484;2023-03-01T02:36:29;16.13;;;10.87;;
12947;SDS011;6539;49.476;8.484;2023-03-01T02:39:01;14.20;;;10.70;;
12947;SDS011;6539;49.476;8.484;2023-03-01T02:41:36;13.83;;;10.47;;
12947;SDS011;6539;49.476;8.484;2023-03-01T02:44:03;15.53;;;10.57;;
12947;SDS011;6539;49.476;8.484;2023-03-01T02:46:33;15.27;;;10.93;;
12947;SDS011;6539;49.476;8.484;2023-03-01T02:49:22;14.40;;;10.13;;
12947;SDS011;6539;49.476;8.484;2023-03-01T02:55:11;14.17;;;10.67;;
12947;SDS011;6539;49.476;8.484;2023-03-01T02:57:42;13.07;;;10.03;;
12947;SDS011;6539;49.476;8.484;2023-03-01T03:00:21;15.23;;;10.93;;
12947;SDS011;6539;49.476;8.484;2023-03-01T03:02:53;15.03;;;10.13;;
12947;SDS011;6539;49.476;8.484;2023-03-01T03:05:23;18.53;;;10.90;;
12947;SDS011;6539;49.476;8.484;2023-03-01T03:07:54;12.93;;;10.43;;
12947;SDS011;6539;49.476;8.484;2023-03-01T03:10:22;15.77;;;11.33;;
12947;SDS011;6539;49.476;8.484;2023-03-01T03:12:57;16.53;;;11.13;;
12947;SDS011;6539;49.476;8.484;2023-03-01T03:15:35;17.10;;;10.80;;
12947;SDS011;6539;49.476;8.484;2023-03-01T03:18:01;14.43;;;10.00;;
12947;SDS011;6539;49.476;8.484;2023-03-01T03:20:33;17.00;;;11.70;;
12947;SDS011;6539;49.476;8.484;2023-03-01T03:23:01;15.03;;;10.90;;
12947;SDS011;6539;49.476;8.484;2023-03-01T03:25:28;15.47;;;11.13;;
12947;SDS011;6539;49.476;8.484;2023-03-01T03:27:55;16.57;;;11.53;;
12947;SDS011;6539;49.476;8.484;2023-03-01T03:30:25;15.00;;;10.40;;
12947;SDS011;6539;49.476;8.484;2023-03-01T03:33:03;16.10;;;11.13;;
12947;SDS011;6539;49.476;8.484;2023-03-01T03:35:34;14.87;;;10.77;;
12947;SDS011;6539;49.476;8.484;2023-03-01T03:38:10;16.43;;;10.70;;
12947;SDS011;6539;49.476;8.484;2023-03-01T03:40:45;15.27;;;11.53;;
12947;SDS011;6539;49.476;8.484;2023-03-01T03:43:17;12.63;;;10.07;;
12947;SDS011;6539;49.476;8.484;2023-03-01T03:45:49;13.33;;;10.47;;
12947;SDS011;6539;49.476;8.484;2023-03-01T03:48:18;18.80;;;11.47;;
12947;SDS011;6539;49.476;8.484;2023-03-01T03:50:52;15.33;;;11.30;;
12947;SDS011;6539;49.476;8.484;2023-03-01T03:53:21;13.97;;;10.83;;
12947;SDS011;6539;49.476;8.484;2023-03-01T03:55:51;14.97;;;11.30;;
12947;SDS011;6539;49.476;8.484;2023-03-01T03:58:18;14.53;;;10.80;;
12947;SDS011;6539;49.476;8.484;2023-03-01T04:00:49;14.70;;;11.77;;
12947;SDS011;6539;49.476;8.484;2023-03-01T04:03:18;16.17;;;11.10;;
12947;SDS011;6539;49.476;8.484;2023-03-01T04:05:46;15.70;;;10.73;;
12947;SDS011;6539;49.476;8.484;2023-03-01T04:08:13;12.37;;;10.30;;
12947;SDS011;6539;49.476;8.484;2023-03-01T04:10:42;14.00;;;10.07;;
12947;SDS011;6539;49.476;8.484;2023-03-01T04:13:12;14.93;;;11.13;;
12947;SDS011;6539;49.476;8.484;2023-03-01T04:15:42;13.33;;;10.83;;
12947;SDS011;6539;49.476;8.484;2023-03-01T04:18:08;15.87;;;12.07;;
12947;SDS011;6539;49.476;8.484;2023-03-01T04:20:40;15.83;;;11.50;;
12947;SDS011;6539;49.476;8.484;2023-03-01T04:23:17;15.83;;;11.30;;
12947;SDS011;6539;49.476;8.484;2023-03-01T04:25:51;15.40;;;11.37;;
12947;SDS011;6539;49.476;8.484;2023-03-01T04:28:32;15.90;;;11.40;;
12947;SDS011;6539;49.476;8.484;2023-03-01T04:31:08;16.90;;;11.50;;
12947;SDS011;6539;49.476;8.484;2023-03-01T04:33:42;15.13;;;11.00;;
12947;SDS011;6539;49.476;8.484;2023-03-01T04:36:16;16.07;;;11.57;;
12947;SDS011;6539;49.476;8.484;2023-03-01T04:38:46;14.87;;;10.57;;
12947;SDS011;6539;49.476;8.484;2023-03-01T04:41:15;18.60;;;11.43;;
12947;SDS011;6539;49.476;8.484;2023-03-01T04:43:45;18.73;;;11.50;;
12947;SDS011;6539;49.476;8.484;2023-03-01T04:46:15;15.80;;;11.60;;
12947;SDS011;6539;49.476;8.484;2023-03-01T04:48:44;15.23;;;11.37;;
12947;SDS011;6539;49.476;8.484;2023-03-01T04:51:12;17.27;;;11.60;;
12947;SDS011;6539;49.476;8.484;2023-03-01T04:53:38;16.80;;;11.83;;
12947;SDS011;6539;49.476;8.484;2023-03-01T04:56:08;16.40;;;11.30;;
12947;SDS011;6539;49.476;8.484;2023-03-01T04:58:34;16.90;;;11.53;;
12947;SDS011;6539;49.476;8.484;2023-03-01T05:01:00;23.87;;;13.60;;
12947;SDS011;6539;49.476;8.484;2023-03-01T05:03:28;19.03;;;12.60;;
12947;SDS011;6539;49.476;8.484;2023-03-01T05:05:58;20.50;;;13.17;;
12947;SDS011;6539;49.476;8.484;2023-03-01T05:08:24;19.07;;;11.30;;
12947;SDS011;6539;49.476;8.484;2023-03-01T05:10:51;20.83;;;11.90;;
12947;SDS011;6539;49.476;8.484;2023-03-01T05:13:22;17.93;;;12.00;;
12947;SDS011;6539;49.476;8.484;2023-03-01T05:15:58;19.10;;;12.83;;
12947;SDS011;6539;49.476;8.484;2023-03-01T05:18:30;14.40;;;10.33;;
12947;SDS011;6539;49.476;8.484;2023-03-01T05:23:45;18.77;;;12.47;;
12947;SDS011;6539;49.476;8.484;2023-03-01T05:26:16;17.33;;;11.80;;
12947;SDS011;6539;49.476;8.484;2023-03-01T05:28:49;16.60;;;12.20;;
12947;SDS011;6539;49.476;8.484;2023-03-01T05:31:17;20.90;;;13.00;;
12947;SDS011;6539;49.476;8.484;2023-03-01T05:33:45;16.83;;;11.97;;
12947;SDS011;6539;49.476;8.484;2023-03-01T05:36:13;16.57;;;12.37;;
12947;SDS011;6539;49.476;8.484;2023-03-01T05:38:39;18.50;;;12.93;;
12947;SDS011;6539;49.476;8.484;2023-03-01T05:41:05;17.93;;;12.27;;
12947;SDS011;6539;49.476;8.484;2023-03-01T05:43:40;17.97;;;13.17;;
12947;SDS011;6539;49.476;8.484;2023-03-01T05:46:08;18.33;;;12.20;;
12947;SDS011;6539;49.476;8.484;2023-03-01T05:48:37;19.07;;;13.63;;
12947;SDS011;6539;49.476;8.484;2023-03-01T05:51:03;16.83;;;12.33;;
12947;SDS011;6539;49.476;8.484;2023-03-01T05:53:32;17.83;;;12.40;;
12947;SDS011;6539;49.476;8.484;2023-03-01T05:56:02;19.27;;;12.20;;
12947;SDS011;6539;49.476;8.484;2023-03-01T05:58:33;22.00;;;13.07;;
12947;SDS011;6539;49.476;8.484;2023-03-01T06:00:59;17.77;;;12.50;;
12947;SDS011;6539;49.476;8.484;2023-03-01T06:03:25;17.13;;;12.57;;
12947;SDS011;6539;49.476;8.484;2023-03-01T06:05:56;21.00;;;13.87;;
12947;SDS011;6539;49.476;8.484;2023-03-01T06:08:23;19.50;;;14.00;;
12947;SDS011;6539;49.476;8.484;2023-03-01T06:10:51;18.63;;;13.03;;
12947;SDS011;6539;49.476;8.484;2023-03-01T06:13:17;20.33;;;13.60;;
12947;SDS011;6539;49.476;8.484;2023-03-01T06:15:43;19.50;;;13.57;;
12947;SDS011;6539;49.476;8.484;2023-03-01T06:18:11;20.40;;;13.43;;
12947;SDS011;6539;49.476;8.484;2023-03-01T06:20:37;17.80;;;12.40;;
12947;SDS011;6539;49.476;8.484;2023-03-01T06:23:02;18.57;;;13.03;;
12947;SDS011;6539;49.476;8.484;2023-03-01T06:25:29;20.83;;;13.23;;
12947;SDS011;6539;49.476;8.484;2023-03-01T06:27:55;20.10;;;12.67;;
12947;SDS011;6539;49.476;8.484;2023-03-01T06:30:23;21.57;;;13.60;;
12947;SDS011;6539;49.476;8.484;2023-03-01T06:32:51;18.27;;;12.50;;
12947;SDS011;6539;49.476;8.484;2023-03-01T06:35:18;20.03;;;13.13;;
12947;SDS011;6539;49.476;8.484;2023-03-01T06:37:45;20.13;;;13.10;;
12947;SDS011;6539;49.476;8.484;2023-03-01T06:40:12;18.97;;;13.63;;
12947;SDS011;6539;49.476;8.484;2023-03-01T06:42:40;19.07;;;12.90;;
12947;SDS011;6539;49.476;8.484;2023-03-01T06:45:08;20.53;;;13.30;;
12947;SDS011;6539;49.476;8.484;2023-03-01T06:47:38;16.93;;;12.77;;
12947;SDS011;6539;49.476;8.484;2023-03-01T06:50:04;18.73;;;13.37;;
12947;SDS011;6539;49.476;8.484;2023-03-01T06:52:30;20.93;;;13.00;;
12947;SDS011;6539;49.476;8.484;2023-03-01T06:54:56;17.03;;;12.47;;
12947;SDS011;6539;49.476;8.484;2023-03-01T06:57:25;15.83;;;12.50;;
12947;SDS011;6539;49.476;8.484;2023-03-01T06:59:51;22.30;;;14.17;;
12947;SDS011;6539;49.476;8.484;2023-03-01T07:02:19;18.60;;;13.60;;
12947;SDS011;6539;49.476;8.484;2023-03-01T07:04:45;22.77;;;14.10;;
12947;SDS011;6539;49.476;8.484;2023-03-01T07:07:14;26.83;;;17.37;;
12947;SDS011;6539;49.476;8.484;2023-03-01T07:09:43;25.27;;;17.97;;
12947;SDS011;6539;49.476;8.484;2023-03-01T07:12:12;23.03;;;15.07;;
12947;SDS011;6539;49.476;8.484;2023-03-01T07:14:40;21.83;;;16.57;;
12947;SDS011;6539;49.476;8.484;2023-03-01T07:17:08;16.70;;;12.60;;
12947;SDS011;6539;49.476;8.484;2023-03-01T07:19:34;23.97;;;15.23;;
12947;SDS011;6539;49.476;8.484;2023-03-01T07:22:03;23.67;;;16.43;;
12947;SDS011;6539;49.476;8.484;2023-03-01T07:24:29;22.27;;;14.80;;
12947;SDS011;6539;49.476;8.484;2023-03-01T07:26:55;17.00;;;13.30;;
12947;SDS011;6539;49.476;8.484;2023-03-01T07:29:25;22.10;;;15.17;;
12947;SDS011;6539;49.476;8.484;2023-03-01T07:31:52;18.57;;;13.80;;
12947;SDS011;6539;49.476;8.484;2023-03-01T07:34:20;19.03;;;13.60;;
12947;SDS011;6539;49.476;8.484;2023-03-01T07:36:45;19.23;;;13.10;;
12947;SDS011;6539;49.476;8.484;2023-03-01T07:39:12;17.27;;;12.90;;
12947;SDS011;6539;49.476;8.484;2023-03-01T07:41:38;17.83;;;12.77;;
12947;SDS011;6539;49.476;8.484;2023-03-01T07:44:08;20.23;;;13.70;;
12947;SDS011;6539;49.476;8.484;2023-03-01T07:46:40;19.30;;;12.90;;
12947;SDS011;6539;49.476;8.484;2023-03-01T07:49:06;22.00;;;14.40;;
12947;SDS011;6539;49.476;8.484;2023-03-01T07:51:34;19.13;;;13.67;;
12947;SDS011;6539;49.476;8.484;2023-03-01T07:53:59;21.20;;;13.17;;
12947;SDS011;6539;49.476;8.484;2023-03-01T07:56:28;20.93;;;12.47;;
12947;SDS011;6539;49.476;8.484;2023-03-01T07:58:53;19.40;;;13.47;;
12947;SDS011;6539;49.476;8.484;2023-03-01T08:01:20;19.30;;;14.10;;
12947;SDS011;6539;49.476;8.484;2023-03-01T08:03:47;14.63;;;12.37;;
12947;SDS011;6539;49.476;8.484;2023-03-01T08:06:13;17.93;;;13.53;;
12947;SDS011;6539;49.476;8.484;2023-03-01T08:08:42;22.67;;;15.17;;
12947;SDS011;6539;49.476;8.484;2023-03-01T08:11:12;18.77;;;11.90;;
12947;SDS011;6539;49.476;8.484;2023-03-01T08:13:42;22.07;;;15.43;;
12947;SDS011;6539;49.476;8.484;2023-03-01T08:16:13;18.23;;;14.00;;
12947;SDS011;6539;49.476;8.484;2023-03-01T08:18:40;19.53;;;13.53;;
12947;SDS011;6539;49.476;8.484;2023-03-01T08:21:10;17.73;;;13.03;;
12947;SDS011;6539;49.476;8.484;2023-03-01T08:23:38;17.47;;;13.13;;
12947;SDS011;6539;49.476;8.484;2023-03-01T08:26:10;17.03;;;12.97;;
12947;SDS011;6539;49.476;8.484;2023-03-01T08:28:45;18.97;;;13.27;;
12947;SDS011;6539;49.476;8.484;2023-03-01T08:31:13;16.27;;;12.73;;
12947;SDS011;6539;49.476;8.484;2023-03-01T08:33:46;17.47;;;13.10;;
12947;SDS011;6539;49.476;8.484;2023-03-01T08:36:18;16.47;;;13.13;;
12947;SDS011;6539;49.476;8.484;2023-03-01T08:38:44;16.63;;;13.13;;
12947;SDS011;6539;49.476;8.484;2023-03-01T08:41:10;15.70;;;12.37;;
12947;SDS011;6539;49.476;8.484;2023-03-01T08:43:41;17.57;;;12.73;;
12947;SDS011;6539;49.476;8.484;2023-03-01T08:46:07;18.90;;;14.00;;
12947;SDS011;6539;49.476;8.484;2023-03-01T08:48:36;15.83;;;12.90;;
12947;SDS011;6539;49.476;8.484;2023-03-01T08:51:09;19.33;;;13.37;;
12947;SDS011;6539;49.476;8.484;2023-03-01T08:53:40;21.63;;;16.07;;
12947;SDS011;6539;49.476;8.484;2023-03-01T08:56:09;17.57;;;14.13;;
12947;SDS011;6539;49.476;8.484;2023-03-01T08:58:35;20.00;;;13.80;;
12947;SDS011;6539;49.476;8.484;2023-03-01T09:01:06;27.17;;;21.90;;
12947;SDS011;6539;49.476;8.484;2023-03-01T09:03:36;17.17;;;12.97;;
12947;SDS011;6539;49.476;8.484;2023-03-01T09:06:02;17.10;;;13.70;;
12947;SDS011;6539;49.476;8.484;2023-03-01T09:08:30;16.53;;;13.60;;
12947;SDS011;6539;49.476;8.484;2023-03-01T09:11:00;15.43;;;13.40;;
12947;SDS011;6539;49.476;8.484;2023-03-01T09:13:32;18.23;;;13.40;;
12947;SDS011;6539;49.476;8.484;2023-03-01T09:15:59;17.53;;;13.33;;
12947;SDS011;6539;49.476;8.484;2023-03-01T09:18:27;16.37;;;13.83;;
12947;SDS011;6539;49.476;8.484;2023-03-01T09:21:06;17.30;;;14.00;;
12947;SDS011;6539;49.476;8.484;2023-03-01T09:23:45;16.20;;;12.33;;
12947;SDS011;6539;49.476;8.484;2023-03-01T09:26:14;15.13;;;13.40;;
12947;SDS011;6539;49.476;8.484;2023-03-01T09:28:44;16.90;;;13.97;;
12947;SDS011;6539;49.476;8.484;2023-03-01T09:31:12;15.87;;;13.77;;
12947;SDS011;6539;49.476;8.484;2023-03-01T09:33:39;16.23;;;13.70;;
12947;SDS011;6539;49.476;8.484;2023-03-01T09:36:13;16.83;;;14.20;;
12947;SDS011;6539;49.476;8.484;2023-03-01T09:38:47;17.10;;;14.20;;
12947;SDS011;6539;49.476;8.484;2023-03-01T09:44:10;16.27;;;14.10;;
12947;SDS011;6539;49.476;8.484;2023-03-01T09:47:12;19.03;;;15.03;;
12947;SDS011;6539;49.476;8.484;2023-03-01T09:55:44;19.60;;;14.77;;
12947;SDS011;6539;49.476;8.484;2023-03-01T10:01:26;20.33;;;14.40;;
12947;SDS011;6539;49.476;8.484;2023-03-01T10:04:49;16.47;;;13.87;;
12947;SDS011;6539;49.476;8.484;2023-03-01T10:07:40;17.67;;;14.13;;
12947;SDS011;6539;49.476;8.484;2023-03-01T10:10:50;24.27;;;15.13;;
12947;SDS011;6539;49.476;8.484;2023-03-01T10:13:23;20.67;;;15.50;;
12947;SDS011;6539;49.476;8.484;2023-03-01T10:16:15;40.67;;;31.23;;
12947;SDS011;6539;49.476;8.484;2023-03-01T10:18:51;20.13;;;16.37;;
12947;SDS011;6539;49.476;8.484;2023-03-01T10:21:27;20.07;;;15.07;;
12947;SDS011;6539;49.476;8.484;2023-03-01T10:23:56;18.80;;;14.17;;
12947;SDS011;6539;49.476;8.484;2023-03-01T10:29:11;19.57;;;14.97;;
12947;SDS011;6539;49.476;8.484;2023-03-01T10:31:47;19.80;;;15.03;;
12947;SDS011;6539;49.476;8.484;2023-03-01T10:34:17;21.40;;;14.67;;
12947;SDS011;6539;49.476;8.484;2023-03-01T10:36:50;17.50;;;14.10;;
12947;SDS011;6539;49.476;8.484;2023-03-01T10:39:22;19.03;;;14.33;;
12947;SDS011;6539;49.476;8.484;2023-03-01T10:44:36;17.23;;;14.60;;
12947;SDS011;6539;49.476;8.484;2023-03-01T10:49:51;17.53;;;13.90;;
12947;SDS011;6539;49.476;8.484;2023-03-01T10:52:35;21.03;;;15.60;;
12947;SDS011;6539;49.476;8.484;2023-03-01T11:01:24;18.47;;;14.73;;
12947;SDS011;6539;49.476;8.484;2023-03-01T11:03:40;17.30;;;14.17;;
12947;SDS011;6539;49.476;8.484;2023-03-01T11:08:48;17.57;;;14.63;;
12947;SDS011;6539;49.476;8.484;2023-03-01T11:14:16;20.57;;;15.23;;
12947;SDS011;6539;49.476;8.484;2023-03-01T11:16:47;27.90;;;21.43;;
12947;SDS011;6539;49.476;8.484;2023-03-01T11:19:24;16.27;;;14.57;;
12947;SDS011;6539;49.476;8.484;2023-03-01T11:24:44;16.17;;;13.97;;
12947;SDS011;6539;49.476;8.484;2023-03-01T11:30:05;17.60;;;13.80;;
12947;SDS011;6539;49.476;8.484;2023-03-01T11:32:47;17.53;;;13.87;;
12947;SDS011;6539;49.476;8.484;2023-03-01T11:35:36;17.23;;;13.93;;
12947;SDS011;6539;49.476;8.484;2023-03-01T11:40:57;18.67;;;14.67;;
12947;SDS011;6539;49.476;8.484;2023-03-01T11:52:04;18.97;;;14.73;;
12947;SDS011;6539;49.476;8.484;2023-03-01T12:16:30;19.23;;;13.17;;
12947;SDS011;6539;49.476;8.484;2023-03-01T12:22:39;18.60;;;14.83;;
12947;SDS011;6539;49.476;8.484;2023-03-01T12:25:48;16.83;;;13.57;;
12947;SDS011;6539;49.476;8.484;2023-03-01T12:28:25;16.80;;;13.70;;
12947;SDS011;6539;49.476;8.484;2023-03-01T12:31:13;17.17;;;13.53;;
12947;SDS011;6539;49.476;8.484;2023-03-01T12:34:28;18.90;;;13.83;;
12947;SDS011;6539;49.476;8.484;2023-03-01T12:40:24;18.93;;;13.63;;
12947;SDS011;6539;49.476;8.484;2023-03-01T12:51:54;18.73;;;13.57;;
12947;SDS011;6539;49.476;8.484;2023-03-01T12:54:37;16.30;;;12.93;;
12947;SDS011;6539;49.476;8.484;2023-03-01T12:57:14;16.00;;;12.67;;
12947;SDS011;6539;49.476;8.484;2023-03-01T13:00:01;16.30;;;13.23;;
12947;SDS011;6539;49.476;8.484;2023-03-01T13:06:08;17.13;;;13.37;;
12947;SDS011;6539;49.476;8.484;2023-03-01T13:09:14;18.83;;;12.67;;
12947;SDS011;6539;49.476;8.484;2023-03-01T13:11:50;17.73;;;13.37;;
12947;SDS011;6539;49.476;8.484;2023-03-01T13:16:50;17.63;;;12.83;;
12947;SDS011;6539;49.476;8.484;2023-03-01T13:19:21;16.17;;;12.80;;
12947;SDS011;6539;49.476;8.484;2023-03-01T13:21:57;14.77;;;12.50;;
12947;SDS011;6539;49.476;8.484;2023-03-01T13:24:36;17.90;;;12.73;;
12947;SDS011;6539;49.476;8.484;2023-03-01T13:29:46;13.97;;;12.07;;
12947;SDS011;6539;49.476;8.484;2023-03-01T13:32:31;16.83;;;12.43;;
12947;SDS011;6539;49.476;8.484;2023-03-01T13:37:47;15.47;;;11.67;;
12947;SDS011;6539;49.476;8.484;2023-03-01T13:42:55;14.43;;;12.27;;
12947;SDS011;6539;49.476;8.484;2023-03-01T13:46:07;15.47;;;11.53;;
12947;SDS011;6539;49.476;8.484;2023-03-01T13:48:40;15.27;;;11.67;;
12947;SDS011;6539;49.476;8.484;2023-03-01T13:51:09;13.83;;;11.23;;
12947;SDS011;6539;49.476;8.484;2023-03-01T13:53:41;13.73;;;10.17;;
12947;SDS011;6539;49.476;8.484;2023-03-01T13:56:21;16.17;;;11.63;;
12947;SDS011;6539;49.476;8.484;2023-03-01T14:01:45;16.10;;;12.73;;
12947;SDS011;6539;49.476;8.484;2023-03-01T14:04:30;15.93;;;11.33;;
12947;SDS011;6539;49.476;8.484;2023-03-01T14:07:33;14.97;;;11.50;;
12947;SDS011;6539;49.476;8.484;2023-03-01T14:09:57;14.63;;;10.97;;
12947;SDS011;6539;49.476;8.484;2023-03-01T14:12:35;12.97;;;10.60;;
12947;SDS011;6539;49.476;8.484;2023-03-01T14:15:31;13.33;;;10.83;;
12947;SDS011;6539;49.476;8.484;2023-03-01T14:18:25;13.73;;;10.77;;
12947;SDS011;6539;49.476;8.484;2023-03-01T14:21:12;15.67;;;12.70;;
12947;SDS011;6539;49.476;8.484;2023-03-01T14:23:40;17.03;;;14.30;;
12947;SDS011;6539;49.476;8.484;2023-03-01T14:26:09;13.83;;;10.90;;
12947;SDS011;6539;49.476;8.484;2023-03-01T14:28:38;13.33;;;10.03;;
12947;SDS011;6539;49.476;8.484;2023-03-01T14:33:57;13.97;;;10.53;;
12947;SDS011;6539;49.476;8.484;2023-03-01T14:36:27;13.90;;;10.30;;
12947;SDS011;6539;49.476;8.484;2023-03-01T14:38:56;15.30;;;10.47;;
12947;SDS011;6539;49.476;8.484;2023-03-01T14:41:30;15.70;;;11.27;;
12947;SDS011;6539;49.476;8.484;2023-03-01T14:44:02;14.33;;;10.67;;
12947;SDS011;6539;49.476;8.484;2023-03-01T14:46:37;13.00;;;10.30;;
12947;SDS011;6539;49.476;8.484;2023-03-01T14:51:39;15.43;;;10.13;;
12947;SDS011;6539;49.476;8.484;2023-03-01T14:54:20;13.20;;;10.70;;
12947;SDS011;6539;49.476;8.484;2023-03-01T14:56:58;12.43;;;9.63;;
12947;SDS011;6539;49.476;8.484;2023-03-01T14:59:28;11.53;;;10.23;;
12947;SDS011;6539;49.476;8.484;2023-03-01T15:01:55;12.80;;;9.60;;
12947;SDS011;6539;49.476;8.484;2023-03-01T15:04:23;14.17;;;9.83;;
12947;SDS011;6539;49.476;8.484;2023-03-01T15:06:52;13.07;;;10.00;;
12947;SDS011;6539;49.476;8.484;2023-03-01T15:09:20;15.10;;;9.83;;
12947;SDS011;6539;49.476;8.484;2023-03-01T15:11:47;14.27;;;9.27;;
12947;SDS011;6539;49.476;8.484;2023-03-01T15:17:42;13.90;;;9.73;;
12947;SDS011;6539;49.476;8.484;2023-03-01T15:20:15;12.90;;;9.67;;
12947;SDS011;6539;49.476;8.484;2023-03-01T15:22:54;13.67;;;9.57;;
12947;SDS011;6539;49.476;8.484;2023-03-01T15:25:30;14.90;;;9.80;;
12947;SDS011;6539;49.476;8.484;2023-03-01T15:27:59;14.77;;;10.40;;
12947;SDS011;6539;49.476;8.484;2023-03-01T15:30:31;13.10;;;9.00;;
12947;SDS011;6539;49.476;8.484;2023-03-01T15:33:15;13.43;;;10.07;;
12947;SDS011;6539;49.476;8.484;2023-03-01T15:35:49;13.07;;;9.47;;
12947;SDS011;6539;49.476;8.484;2023-03-01T15:41:22;13.37;;;9.73;;
12947;SDS011;6539;49.476;8.484;2023-03-01T15:44:14;11.37;;;8.93;;
12947;SDS011;6539;49.476;8.484;2023-03-01T15:46:49;12.80;;;9.57;;
12947;SDS011;6539;49.476;8.484;2023-03-01T15:49:39;12.93;;;9.13;;
12947;SDS011;6539;49.476;8.484;2023-03-01T15:52:51;10.03;;;8.50;;
12947;SDS011;6539;49.476;8.484;2023-03-01T15:55:03;16.87;;;9.47;;
12947;SDS011;6539;49.476;8.484;2023-03-01T15:57:38;16.47;;;10.73;;
12947;SDS011;6539;49.476;8.484;2023-03-01T16:00:04;16.03;;;10.83;;
12947;SDS011;6539;49.476;8.484;2023-03-01T16:02:36;15.50;;;10.17;;
12947;SDS011;6539;49.476;8.484;2023-03-01T16:05:03;12.73;;;9.30;;
12947;SDS011;6539;49.476;8.484;2023-03-01T16:07:32;12.03;;;8.77;;
12947;SDS011;6539;49.476;8.484;2023-03-01T16:10:00;16.90;;;10.20;;
12947;SDS011;6539;49.476;8.484;2023-03-01T16:12:26;12.93;;;10.23;;
12947;SDS011;6539;49.476;8.484;2023-03-01T16:14:52;19.40;;;12.67;;
12947;SDS011;6539;49.476;8.484;2023-03-01T16:17:22;14.03;;;9.73;;
12947;SDS011;6539;49.476;8.484;2023-03-01T16:19:51;15.43;;;10.23;;
12947;SDS011;6539;49.476;8.484;2023-03-01T16:22:16;12.60;;;9.23;;
12947;SDS011;6539;49.476;8.484;2023-03-01T16:24:49;12.67;;;8.97;;
12947;SDS011;6539;49.476;8.484;2023-03-01T16:27:16;11.80;;;8.93;;
12947;SDS011;6539;49.476;8.484;2023-03-01T16:29:44;18.37;;;14.53;;
12947;SDS011;6539;49.476;8.484;2023-03-01T16:32:09;23.27;;;15.80;;
12947;SDS011;6539;49.476;8.484;2023-03-01T16:34:37;15.77;;;11.53;;
12947;SDS011;6539;49.476;8.484;2023-03-01T16:37:03;13.77;;;9.67;;
12947;SDS011;6539;49.476;8.484;2023-03-01T16:39:29;13.47;;;9.10;;
12947;SDS011;6539;49.476;8.484;2023-03-01T16:41:55;10.53;;;8.70;;
12947;SDS011;6539;49.476;8.484;2023-03-01T16:44:20;15.97;;;10.07;;
12947;SDS011;6539;49.476;8.484;2023-03-01T16:46:51;24.87;;;16.93;;
12947;SDS011;6539;49.476;8.484;2023-03-01T16:49:17;22.33;;;16.20;;
12947;SDS011;6539;49.476;8.484;2023-03-01T16:51:43;13.03;;;10.07;;
12947;SDS011;6539;49.476;8.484;2023-03-01T16:54:11;11.73;;;9.33;;
12947;SDS011;6539;49.476;8.484;2023-03-01T16:56:39;34.47;;;25.87;;
12947;SDS011;6539;49.476;8.484;2023-03-01T16:59:05;13.83;;;11.70;;
12947;SDS011;6539;49.476;8.484;2023-03-01T17:01:32;13.20;;;9.70;;
12947;SDS011;6539;49.476;8.484;2023-03-01T17:04:02;12.80;;;8.93;;
12947;SDS011;6539;49.476;8.484;2023-03-01T17:06:28;12.07;;;8.93;;
12947;SDS011;6539;49.476;8.484;2023-03-01T17:08:54;13.17;;;9.63;;
12947;SDS011;6539;49.476;8.484;2023-03-01T17:11:24;14.67;;;9.40;;